Time;durP1;ratioP1;P1;durP2;ratioP2;P2;SDS_P1;SDS_P2;PMS_P1;PMS_P2;Temp;Humidity;BMP_temperature;BMP_pressure;BME280_temperature;BME280_humidity;BME280_pressure;Samples;Min_cycle;Max_cycle;Signal;HPM_P1;HPM_P2
2021/09/01 00:01:15;;;;;;;4.18;1.80;;;20.80;64.00;;;;;;4936745;29;20038;-81
2021/09/01 00:03:40;;;;;;;3.10;1.60;;;20.70;63.90;;;;;;4888327;29;20130;-81
2021/09/01 00:06:06;;;;;;;3.55;1.63;;;20.70;63.90;;;;;;4903753;29;20366;-81
2021/09/01 00:08:34;;;;;;;3.63;1.70;;;20.80;64.00;;;;;;4935278;29;20501;-81
2021/09/01 00:10:59;;;;;;;4.20;1.92;;;20.80;64.00;;;;;;4935358;29;20115;-81
2021/09/01 00:13:25;;;;;;;2.28;1.60;;;20.70;63.90;;;;;;4934970;29;20123;-82
2021/09/01 00:15:51;;;;;;;5.03;1.90;;;20.70;64.00;;;;;;4935379;29;20476;-81
2021/09/01 00:18:17;;;;;;;3.15;1.70;;;20.70;64.00;;;;;;4919412;29;20140;-81
2021/09/01 00:20:43;;;;;;;3.88;1.80;;;20.70;64.00;;;;;;4936328;29;20106;-81
2021/09/01 00:23:14;;;;;;;3.72;1.65;;;20.60;64.00;;;;;;4936509;29;20043;-81
2021/09/01 00:25:41;;;;;;;3.83;1.70;;;20.60;64.00;;;;;;4920340;29;20095;-81
2021/09/01 00:28:07;;;;;;;2.83;1.70;;;20.60;64.00;;;;;;4935571;29;20163;-81
2021/09/01 00:30:33;;;;;;;3.58;1.95;;;20.70;64.10;;;;;;4934745;29;20063;-82
2021/09/01 00:32:58;;;;;;;4.03;1.77;;;20.70;64.10;;;;;;4919211;29;20036;-81
2021/09/01 00:35:24;;;;;;;4.53;1.85;;;20.70;64.10;;;;;;4887916;29;20441;-81
2021/09/01 00:37:50;;;;;;;2.60;1.58;;;20.60;64.10;;;;;;4903151;29;20059;-81
2021/09/01 00:40:16;;;;;;;2.75;1.50;;;20.60;64.10;;;;;;4934744;29;20086;-81
2021/09/01 00:42:42;;;;;;;2.92;1.55;;;20.60;64.10;;;;;;4919437;29;20091;-81
2021/09/01 00:45:08;;;;;;;3.47;1.60;;;20.60;64.10;;;;;;4919399;29;20063;-81
2021/09/01 00:47:36;;;;;;;4.00;1.75;;;20.60;64.10;;;;;;4939047;28;20055;-81
2021/09/01 00:50:11;;;;;;;3.15;1.67;;;20.60;64.20;;;;;;4956978;28;20062;-81
2021/09/01 00:52:39;;;;;;;3.38;1.70;;;20.50;64.20;;;;;;4925646;28;20039;-81
2021/09/01 00:55:05;;;;;;;2.85;1.60;;;20.60;64.20;;;;;;4941915;28;20419;-81
2021/09/01 00:57:32;;;;;;;3.20;1.67;;;20.50;64.10;;;;;;4956954;28;20034;-81
2021/09/01 00:59:58;;;;;;;3.88;1.85;;;20.50;64.10;;;;;;4941995;28;20126;-81
2021/09/01 01:02:24;;;;;;;2.88;1.73;;;20.50;64.10;;;;;;4941177;28;20129;-80
2021/09/01 01:04:50;;;;;;;2.95;1.65;;;20.50;64.10;;;;;;4957067;28;20062;-81
2021/09/01 01:07:15;;;;;;;4.00;1.70;;;20.50;64.10;;;;;;4974119;28;20070;-81
2021/09/01 01:09:42;;;;;;;3.80;1.50;;;20.50;64.10;;;;;;4941352;28;20046;-81
2021/09/01 01:12:07;;;;;;;2.53;1.70;;;20.50;64.10;;;;;;4957339;28;20105;-81
2021/09/01 01:14:38;;;;;;;3.50;1.70;;;20.50;64.20;;;;;;4957278;28;20468;-81
2021/09/01 01:17:07;;;;;;;3.80;1.80;;;20.50;64.20;;;;;;4956754;28;20387;-81
2021/09/01 01:19:37;;;;;;;2.03;1.35;;;20.40;64.10;;;;;;4942562;28;20031;-81
2021/09/01 01:22:03;;;;;;;2.70;1.52;;;20.40;64.20;;;;;;4960615;28;20121;-80
2021/09/01 01:25:05;;;;;;;2.85;1.50;;;20.40;64.20;;;;;;4943708;28;20066;-81
2021/09/01 01:27:34;;;;;;;3.72;1.60;;;20.40;64.40;;;;;;4883501;29;20048;-81
2021/09/01 01:30:16;;;;;;;2.40;1.38;;;20.40;64.20;;;;;;4946341;28;20446;-81
2021/09/01 01:32:45;;;;;;;2.85;1.63;;;20.40;64.30;;;;;;4960086;28;20488;-81
2021/09/01 01:35:22;;;;;;;3.83;1.60;;;20.40;64.30;;;;;;4944379;28;20034;-81
2021/09/01 01:37:47;;;;;;;3.63;1.73;;;20.30;64.30;;;;;;4977266;28;20155;-81
2021/09/01 01:40:13;;;;;;;2.17;1.50;;;20.40;64.30;;;;;;4960333;28;20031;-82
2021/09/01 01:42:40;;;;;;;2.70;1.50;;;20.40;64.40;;;;;;4944031;28;20038;-81
2021/09/01 01:45:07;;;;;;;3.58;1.58;;;20.40;64.40;;;;;;4944137;28;20035;-80
2021/09/01 01:47:33;;;;;;;3.30;1.55;;;20.30;64.40;;;;;;4944598;28;20451;-80
2021/09/01 01:49:59;;;;;;;2.88;1.40;;;20.30;64.40;;;;;;4944917;28;20058;-81
2021/09/01 01:52:25;;;;;;;3.75;1.95;;;20.30;64.40;;;;;;4959780;28;20038;-81
2021/09/01 01:54:51;;;;;;;3.03;1.63;;;20.30;64.40;;;;;;4943928;28;20041;-81
2021/09/01 01:57:16;;;;;;;3.03;1.52;;;20.30;64.40;;;;;;4944550;28;20058;-81
2021/09/01 01:59:42;;;;;;;3.42;1.58;;;20.30;64.40;;;;;;4927990;28;20479;-81
2021/09/01 02:02:08;;;;;;;1.85;1.35;;;20.30;64.40;;;;;;4927914;28;20503;-81
2021/09/01 02:04:34;;;;;;;4.07;2.00;;;20.30;64.40;;;;;;4959445;28;20050;-81
2021/09/01 02:06:59;;;;;;;2.50;1.50;;;20.30;64.40;;;;;;4943641;28;20479;-81
2021/09/01 02:09:25;;;;;;;3.88;1.80;;;20.30;64.40;;;;;;4943528;28;20031;-81
2021/09/01 02:11:51;;;;;;;3.88;1.75;;;20.30;64.50;;;;;;4943648;28;20057;-81
2021/09/01 02:14:17;;;;;;;4.15;1.52;;;20.30;64.50;;;;;;4944434;28;20039;-81
2021/09/01 02:16:42;;;;;;;3.60;1.63;;;20.30;64.50;;;;;;4927647;28;20041;-81
2021/09/01 02:19:10;;;;;;;3.33;1.77;;;20.30;64.50;;;;;;4959262;28;20035;-80
2021/09/01 02:21:37;;;;;;;2.38;1.55;;;20.20;64.50;;;;;;4943081;28;20082;-81
2021/09/01 02:24:04;;;;;;;3.88;1.88;;;20.20;64.50;;;;;;4943240;28;20034;-81
2021/09/01 02:26:30;;;;;;;2.75;1.50;;;20.20;64.60;;;;;;4928087;28;20031;-81
2021/09/01 02:28:55;;;;;;;2.05;1.48;;;20.20;64.60;;;;;;4959665;28;20039;-80
2021/09/01 02:31:21;;;;;;;2.42;1.50;;;20.20;64.60;;;;;;4926448;28;20043;-80
2021/09/01 02:33:47;;;;;;;3.65;1.80;;;20.20;64.60;;;;;;4959094;28;20027;-81
2021/09/01 02:36:13;;;;;;;3.15;1.58;;;20.20;64.70;;;;;;4943008;28;20443;-80
2021/09/01 02:38:44;;;;;;;3.42;1.77;;;20.20;64.60;;;;;;4959028;28;20123;-80
2021/09/01 02:41:11;;;;;;;2.90;1.70;;;20.20;64.60;;;;;;4943014;28;20050;-81
2021/09/01 02:43:37;;;;;;;2.58;1.50;;;20.20;64.60;;;;;;4942678;28;20543;-81
2021/09/01 02:46:03;;;;;;;2.30;1.45;;;20.20;64.60;;;;;;4942835;28;20049;-80
2021/09/01 02:48:29;;;;;;;3.22;1.77;;;20.20;64.60;;;;;;4958813;28;20046;-81
2021/09/01 02:50:55;;;;;;;2.63;1.55;;;20.20;64.60;;;;;;4942430;28;20097;-81
2021/09/01 02:53:21;;;;;;;3.40;1.88;;;20.10;64.60;;;;;;4958754;28;20475;-80
2021/09/01 02:55:47;;;;;;;2.42;1.42;;;20.10;64.60;;;;;;4943250;28;20058;-81
2021/09/01 02:58:13;;;;;;;3.58;1.65;;;20.20;64.70;;;;;;4958640;28;20074;-81
2021/09/01 03:00:38;;;;;;;2.67;1.65;;;20.10;64.60;;;;;;4942622;28;20027;-81
2021/09/01 03:03:04;;;;;;;2.10;1.58;;;20.10;64.60;;;;;;4942749;28;20409;-81
2021/09/01 03:05:30;;;;;;;2.75;1.58;;;20.10;64.60;;;;;;4926977;28;20464;-83
2021/09/01 03:07:56;;;;;;;3.78;1.70;;;20.10;64.60;;;;;;4926733;28;20173;-81
2021/09/01 03:10:22;;;;;;;3.67;1.58;;;20.10;64.60;;;;;;4958245;28;20042;-81
2021/09/01 03:12:48;;;;;;;3.67;1.60;;;20.10;64.70;;;;;;4958030;28;20034;-79
2021/09/01 03:15:14;;;;;;;2.95;1.60;;;20.10;64.70;;;;;;4926410;28;20027;-81
2021/09/01 03:17:39;;;;;;;3.17;1.70;;;20.10;64.70;;;;;;4943002;28;20427;-83
2021/09/01 03:20:06;;;;;;;3.92;1.80;;;20.10;64.70;;;;;;4941773;28;20054;-81
2021/09/01 03:22:32;;;;;;;3.03;1.50;;;20.10;64.70;;;;;;4942076;28;20030;-81
2021/09/01 03:24:57;;;;;;;3.30;1.65;;;20.00;64.70;;;;;;4942389;28;20364;-81
2021/09/01 03:27:23;;;;;;;4.13;1.80;;;20.00;64.70;;;;;;4941857;28;20039;-82
2021/09/01 03:29:49;;;;;;;3.13;1.48;;;20.00;64.70;;;;;;4957678;28;20134;-81
2021/09/01 03:32:15;;;;;;;2.30;1.60;;;20.00;64.70;;;;;;4942854;28;20042;-81
2021/09/01 03:34:41;;;;;;;2.92;1.70;;;20.00;64.70;;;;;;4958483;28;20038;-81
2021/09/01 03:37:07;;;;;;;3.70;1.60;;;20.00;64.70;;;;;;4942663;28;20089;-80
2021/09/01 03:39:32;;;;;;;4.45;1.92;;;20.00;64.80;;;;;;4959958;28;20031;-82
2021/09/01 03:41:58;;;;;;;2.72;1.65;;;20.00;64.70;;;;;;4926490;28;20554;-81
2021/09/01 03:44:24;;;;;;;2.75;1.52;;;20.00;64.80;;;;;;4926806;28;20452;-81
2021/09/01 03:46:49;;;;;;;3.45;1.92;;;20.00;64.70;;;;;;4941641;28;20374;-81
2021/09/01 03:49:18;;;;;;;2.17;1.63;;;20.00;64.80;;;;;;4925748;28;20050;-81
2021/09/01 03:51:47;;;;;;;3.78;2.10;;;20.00;64.80;;;;;;4958137;28;20061;-82
2021/09/01 03:54:14;;;;;;;3.88;1.60;;;20.00;64.80;;;;;;4941598;28;20030;-81
2021/09/01 03:56:40;;;;;;;3.13;1.67;;;19.90;64.70;;;;;;4941868;28;20039;-81
2021/09/01 03:59:07;;;;;;;3.08;1.58;;;20.00;64.80;;;;;;4941584;28;20026;-80
2021/09/01 04:01:35;;;;;;;3.45;1.80;;;20.00;64.80;;;;;;4958279;28;20049;-81
2021/09/01 04:04:05;;;;;;;2.80;1.55;;;19.90;64.80;;;;;;4957682;28;20039;-80
2021/09/01 04:06:31;;;;;;;3.05;1.80;;;19.90;64.80;;;;;;4941599;28;20126;-81
2021/09/01 04:08:57;;;;;;;2.75;1.40;;;19.90;64.80;;;;;;4957406;28;20520;-81
2021/09/01 04:11:23;;;;;;;3.20;1.63;;;19.90;64.80;;;;;;4941674;28;20039;-81
2021/09/01 04:13:49;;;;;;;2.88;1.67;;;19.90;64.80;;;;;;4942132;28;20031;-81
2021/09/01 04:16:15;;;;;;;3.35;1.95;;;19.90;64.80;;;;;;4941657;28;20022;-81
2021/09/01 04:18:41;;;;;;;5.07;1.83;;;19.90;64.90;;;;;;4957119;28;20380;-79
2021/09/01 04:21:07;;;;;;;2.58;1.73;;;19.90;64.80;;;;;;4925480;28;20071;-81
2021/09/01 04:23:33;;;;;;;3.20;1.90;;;19.90;64.80;;;;;;4941424;28;20031;-80
2021/09/01 04:25:58;;;;;;;3.70;1.65;;;19.90;64.80;;;;;;4957399;28;20027;-80
2021/09/01 04:28:24;;;;;;;3.60;1.80;;;19.90;64.80;;;;;;4957325;28;20510;-81
2021/09/01 04:30:50;;;;;;;3.35;1.88;;;19.80;64.90;;;;;;4957291;28;20460;-81
2021/09/01 04:33:16;;;;;;;2.97;1.60;;;19.90;64.90;;;;;;4974258;28;20369;-81
2021/09/01 04:35:42;;;;;;;2.80;1.60;;;19.90;64.90;;;;;;4941227;28;20050;-82
2021/09/01 04:38:08;;;;;;;2.35;1.83;;;19.80;64.80;;;;;;4957972;28;20117;-80
2021/09/01 04:40:34;;;;;;;2.55;1.40;;;19.80;64.80;;;;;;4957287;28;20027;-80
2021/09/01 04:42:59;;;;;;;2.78;1.67;;;19.80;64.80;;;;;;4925168;28;20136;-81
2021/09/01 04:45:25;;;;;;;3.13;1.63;;;19.80;64.80;;;;;;4925338;28;20041;-80
2021/09/01 04:47:51;;;;;;;3.60;1.90;;;19.80;64.90;;;;;;4925066;28;20129;-81
2021/09/01 04:50:17;;;;;;;2.70;1.52;;;19.80;64.80;;;;;;4941390;28;20035;-81
2021/09/01 04:52:43;;;;;;;3.13;1.70;;;19.80;64.90;;;;;;4925316;28;20486;-80
2021/09/01 04:55:09;;;;;;;3.10;1.70;;;19.80;64.90;;;;;;4959370;28;20383;-81
2021/09/01 04:57:36;;;;;;;2.90;1.42;;;19.80;64.90;;;;;;4944958;28;20031;-80
2021/09/01 05:00:03;;;;;;;4.30;2.17;;;19.80;64.90;;;;;;4960725;28;20034;-81
2021/09/01 05:02:29;;;;;;;3.40;1.85;;;19.80;64.90;;;;;;4944223;28;20027;-81
2021/09/01 05:04:54;;;;;;;3.10;1.80;;;19.80;64.90;;;;;;4929224;28;20049;-81
2021/09/01 05:07:20;;;;;;;2.80;1.60;;;19.70;64.90;;;;;;4944812;28;20403;-81
2021/09/01 05:09:46;;;;;;;1.80;1.38;;;19.70;64.90;;;;;;4944576;28;20356;-81
2021/09/01 05:12:12;;;;;;;3.47;1.90;;;19.70;64.90;;;;;;4944762;28;20074;-80
2021/09/01 05:14:37;;;;;;;2.65;1.52;;;19.70;64.90;;;;;;4961140;28;20468;-81
2021/09/01 05:17:03;;;;;;;3.22;1.80;;;19.70;64.90;;;;;;4960859;28;20051;-81
2021/09/01 05:19:29;;;;;;;2.67;1.50;;;19.70;64.90;;;;;;4928698;28;20118;-81
2021/09/01 05:21:59;;;;;;;2.42;1.55;;;19.70;64.90;;;;;;4961066;28;20479;-78
2021/09/01 05:24:38;;;;;;;2.63;1.50;;;19.70;65.00;;;;;;4960657;28;20023;-81
2021/09/01 05:27:11;;;;;;;3.88;1.80;;;19.70;65.00;;;;;;4960978;28;20482;-81
2021/09/01 05:29:43;;;;;;;3.42;1.58;;;19.70;65.00;;;;;;4944543;28;20031;-81
2021/09/01 05:32:33;;;;;;;3.20;1.73;;;19.70;65.00;;;;;;4960571;28;20034;-81
2021/09/01 05:35:00;;;;;;;2.00;1.40;;;19.70;65.00;;;;;;4975673;28;20074;-80
2021/09/01 05:37:27;;;;;;;2.83;1.60;;;19.70;65.00;;;;;;4944241;28;20378;-81
2021/09/01 05:39:57;;;;;;;2.58;1.70;;;19.70;65.10;;;;;;4959985;28;20031;-80
2021/09/01 05:42:26;;;;;;;2.63;1.40;;;19.70;65.10;;;;;;4944611;28;20388;-80
2021/09/01 05:44:55;;;;;;;2.42;1.48;;;19.60;65.10;;;;;;4944705;28;20061;-79
2021/09/01 05:47:21;;;;;;;2.83;1.70;;;19.70;65.10;;;;;;4960184;28;20038;-82
2021/09/01 05:49:49;;;;;;;2.40;1.80;;;19.70;65.10;;;;;;4977408;28;20487;-80
2021/09/01 05:52:16;;;;;;;3.15;1.73;;;19.60;65.10;;;;;;4960049;28;20093;-80
2021/09/01 05:54:51;;;;;;;2.00;1.45;;;19.60;65.10;;;;;;4976722;28;20023;-79
2021/09/01 05:57:20;;;;;;;2.53;1.55;;;19.60;65.20;;;;;;4976997;28;20027;-80
2021/09/01 05:59:55;;;;;;;6.10;1.77;;;19.60;65.10;;;;;;4943712;28;20027;-80
2021/09/01 06:02:22;;;;;;;;;;;19.60;65.10;;;;;;4976235;28;20234;-80
2021/09/01 06:04:48;;;;;;;2.83;1.80;;;19.60;65.00;;;;;;4959744;28;19913;-81
2021/09/01 06:07:18;;;;;;;2.53;1.30;;;19.60;65.00;;;;;;4943976;28;20090;-82
2021/09/01 06:09:46;;;;;;;3.20;1.80;;;19.60;65.20;;;;;;4976574;28;20038;-79
2021/09/01 06:12:15;;;;;;;2.30;1.42;;;19.60;65.20;;;;;;4927620;28;20037;-80
2021/09/01 06:14:41;;;;;;;3.80;1.50;;;19.60;65.20;;;;;;4959727;28;20146;-81
2021/09/01 06:17:06;;;;;;;3.70;1.70;;;19.60;65.20;;;;;;4943744;28;20042;-80
2021/09/01 06:19:32;;;;;;;2.80;1.67;;;19.60;65.30;;;;;;4959778;28;20043;-79
2021/09/01 06:21:58;;;;;;;2.70;1.60;;;19.60;65.30;;;;;;4959891;28;20375;-82
2021/09/01 06:24:24;;;;;;;2.55;1.52;;;19.60;65.20;;;;;;4959371;28;20039;-79
2021/09/01 06:26:50;;;;;;;3.05;1.60;;;19.60;65.20;;;;;;4959982;28;20035;-79
2021/09/01 06:29:16;;;;;;;3.30;1.67;;;19.60;65.20;;;;;;4959271;28;20431;-79
2021/09/01 06:31:42;;;;;;;2.40;1.52;;;19.60;65.20;;;;;;4927481;28;20137;-79
2021/09/01 06:34:08;;;;;;;2.65;1.75;;;19.60;65.20;;;;;;4959220;28;20031;-79
2021/09/01 06:36:33;;;;;;;3.38;1.55;;;19.60;65.20;;;;;;4942920;28;20030;-79
2021/09/01 06:38:59;;;;;;;2.67;1.48;;;19.60;65.20;;;;;;4976455;28;20079;-79
2021/09/01 06:41:25;;;;;;;2.15;1.40;;;19.60;65.20;;;;;;4958715;28;20058;-79
2021/09/01 06:43:51;;;;;;;3.97;1.70;;;19.60;65.30;;;;;;4959284;28;20045;-79
2021/09/01 06:46:16;;;;;;;2.78;1.50;;;19.60;65.30;;;;;;4927016;28;20121;-80
2021/09/01 06:48:42;;;;;;;2.00;1.38;;;19.60;65.30;;;;;;4926812;28;20050;-79
2021/09/01 06:51:08;;;;;;;1.55;1.30;;;19.60;65.30;;;;;;4958355;28;20030;-79
2021/09/01 06:53:33;;;;;;;1.77;1.52;;;19.60;65.30;;;;;;4958798;28;20045;-79
2021/09/01 06:56:00;;;;;;;3.30;1.77;;;19.60;65.30;;;;;;4926963;28;20066;-79
2021/09/01 06:58:25;;;;;;;2.55;1.48;;;19.60;65.30;;;;;;4958450;28;20432;-80
2021/09/01 07:00:51;;;;;;;2.28;1.58;;;19.60;65.30;;;;;;4958277;28;20073;-79
2021/09/01 07:03:17;;;;;;;3.20;1.52;;;19.60;65.30;;;;;;4942467;28;20031;-79
2021/09/01 07:05:43;;;;;;;5.07;1.80;;;19.60;65.30;;;;;;4942406;28;20418;-80
2021/09/01 07:08:17;;;;;;;2.17;1.40;;;19.60;65.30;;;;;;4958237;28;20031;-79
2021/09/01 07:10:44;;;;;;;3.20;1.73;;;19.60;65.30;;;;;;4958690;28;20039;-80
2021/09/01 07:13:11;;;;;;;2.28;1.48;;;19.60;65.30;;;;;;4958614;28;20034;-79
2021/09/01 07:15:37;;;;;;;2.97;1.73;;;19.60;65.30;;;;;;4976171;28;20035;-79
2021/09/01 07:18:03;;;;;;;2.58;1.60;;;19.70;65.30;;;;;;4941647;28;20169;-79
2021/09/01 07:20:29;;;;;;;2.35;1.45;;;19.70;65.30;;;;;;4958288;28;20034;-81
2021/09/01 07:22:55;;;;;;;2.58;1.67;;;19.70;65.30;;;;;;4957742;28;20035;-81
2021/09/01 07:25:21;;;;;;;3.30;1.73;;;19.70;65.30;;;;;;4975182;28;20037;-80
2021/09/01 07:27:47;;;;;;;3.67;1.88;;;19.70;65.30;;;;;;4942041;28;20031;-79
2021/09/01 07:30:13;;;;;;;2.28;1.60;;;19.70;66.00;;;;;;4973906;28;20026;-79
2021/09/01 07:32:40;;;;;;;3.03;1.83;;;19.70;65.30;;;;;;4941936;28;20035;-80
2021/09/01 07:35:06;;;;;;;2.13;1.42;;;19.70;65.30;;;;;;4942633;28;20031;-79
2021/09/01 07:37:32;;;;;;;4.45;1.25;;;19.70;65.30;;;;;;4942174;28;20031;-80
2021/09/01 07:39:57;;;;;;;3.33;1.63;;;19.70;65.30;;;;;;4958221;28;20077;-80
2021/09/01 07:42:23;;;;;;;1.95;1.45;;;19.70;65.30;;;;;;4958479;28;20046;-81
2021/09/01 07:44:49;;;;;;;2.08;1.42;;;19.70;65.30;;;;;;4942478;28;20441;-80
2021/09/01 07:47:15;;;;;;;3.17;1.65;;;19.80;65.30;;;;;;4957857;28;20443;-80
2021/09/01 07:49:41;;;;;;;3.90;1.70;;;19.70;65.30;;;;;;4925916;28;20567;-79
2021/09/01 07:52:08;;;;;;;3.20;1.60;;;19.70;65.30;;;;;;4957617;28;20033;-79
2021/09/01 07:54:34;;;;;;;2.08;1.45;;;19.80;65.30;;;;;;4957233;28;20106;-79
2021/09/01 07:57:01;;;;;;;1.88;1.30;;;19.80;65.30;;;;;;4957498;28;20121;-80
2021/09/01 07:59:26;;;;;;;2.03;1.50;;;19.80;65.30;;;;;;4957462;28;20038;-79
2021/09/01 08:01:52;;;;;;;1.58;1.40;;;19.80;65.30;;;;;;4957894;28;20035;-79
2021/09/01 08:04:18;;;;;;;2.30;1.42;;;19.80;65.30;;;;;;4958224;28;20030;-79
2021/09/01 08:06:44;;;;;;;3.70;1.83;;;19.80;65.30;;;;;;4957362;28;20027;-79
2021/09/01 08:09:10;;;;;;;3.53;1.80;;;19.80;65.30;;;;;;4941321;28;20022;-80
2021/09/01 08:11:35;;;;;;;2.25;1.45;;;19.80;65.20;;;;;;4941542;28;20035;-79
2021/09/01 08:14:01;;;;;;;2.85;1.60;;;19.80;65.20;;;;;;4957820;28;20122;-79
2021/09/01 08:16:27;;;;;;;3.03;1.60;;;19.90;65.30;;;;;;4957372;28;20065;-80
2021/09/01 08:18:53;;;;;;;2.58;1.60;;;19.90;65.30;;;;;;4941394;28;20035;-79
2021/09/01 08:21:19;;;;;;;2.67;1.60;;;19.90;65.30;;;;;;4957438;28;20126;-79
2021/09/01 08:23:45;;;;;;;3.65;1.70;;;19.90;65.30;;;;;;4941998;28;20125;-79
2021/09/01 08:26:11;;;;;;;3.45;1.70;;;19.90;65.30;;;;;;4941256;28;20035;-80
2021/09/01 08:28:37;;;;;;;2.47;1.80;;;19.90;65.30;;;;;;4973600;28;20377;-80
2021/09/01 08:31:03;;;;;;;2.30;1.48;;;19.90;65.20;;;;;;4978070;28;20027;-80
2021/09/01 08:33:28;;;;;;;1.83;1.38;;;20.00;65.30;;;;;;4961093;28;20035;-80
2021/09/01 08:35:54;;;;;;;3.35;1.70;;;20.00;65.30;;;;;;4961388;28;20027;-80
2021/09/01 08:38:20;;;;;;;2.25;1.45;;;20.00;65.30;;;;;;4945533;28;20042;-80
2021/09/01 08:40:48;;;;;;;3.17;1.67;;;20.00;65.30;;;;;;4961613;28;20035;-79
2021/09/01 08:43:19;;;;;;;4.13;1.50;;;20.00;65.30;;;;;;4960648;28;20047;-81
2021/09/01 08:45:46;;;;;;;2.72;1.70;;;20.00;65.30;;;;;;4961298;28;20365;-79
2021/09/01 08:48:14;;;;;;;3.05;1.58;;;20.10;65.30;;;;;;4960795;28;20023;-79
2021/09/01 08:50:41;;;;;;;2.20;1.45;;;20.10;65.30;;;;;;4945281;28;20038;-79
2021/09/01 08:53:07;;;;;;;3.15;1.63;;;20.10;65.30;;;;;;4929238;28;20431;-79
2021/09/01 08:55:33;;;;;;;3.20;1.73;;;20.10;65.20;;;;;;4978039;28;20026;-80
2021/09/01 08:58:01;;;;;;;3.47;1.63;;;20.10;65.20;;;;;;4960545;28;20035;-78
2021/09/01 09:00:26;;;;;;;3.13;1.63;;;20.20;65.30;;;;;;4978451;28;20033;-80
2021/09/01 09:02:54;;;;;;;3.25;1.67;;;20.20;65.20;;;;;;4960402;28;20030;-80
2021/09/01 09:05:33;;;;;;;3.55;1.70;;;20.20;65.20;;;;;;4977040;28;20105;-80
2021/09/01 09:07:59;;;;;;;2.63;1.65;;;20.20;65.20;;;;;;4978495;28;20105;-80
2021/09/01 09:10:36;;;;;;;2.33;1.52;;;20.20;65.10;;;;;;4928889;28;20050;-81
2021/09/01 09:13:13;;;;;;;3.30;1.60;;;20.30;65.20;;;;;;4977607;28;20484;-80
2021/09/01 09:15:41;;;;;;;2.33;1.40;;;20.30;65.20;;;;;;4960909;28;20027;-80
2021/09/01 09:18:28;;;;;;;2.17;1.48;;;20.30;65.40;;;;;;4944571;28;20023;-80
2021/09/01 09:21:15;;;;;;;4.00;1.88;;;20.30;65.80;;;;;;4977421;28;20029;-80
2021/09/01 09:23:41;;;;;;;2.85;1.70;;;20.40;65.20;;;;;;4960260;28;20035;-79
2021/09/01 09:26:30;;;;;;;3.10;1.63;;;20.40;65.00;;;;;;4960198;28;20030;-83
2021/09/01 09:29:07;;;;;;;2.20;1.40;;;20.40;65.20;;;;;;4944565;28;20478;-80
2021/09/01 09:31:33;;;;;;;3.00;1.60;;;20.40;65.10;;;;;;4944354;28;20058;-80
2021/09/01 09:34:10;;;;;;;3.35;1.50;;;20.50;65.00;;;;;;4959837;28;20022;-81
2021/09/01 09:36:36;;;;;;;2.25;1.48;;;20.50;65.10;;;;;;4960026;28;20035;-80
2021/09/01 09:39:04;;;;;;;4.35;1.65;;;20.50;65.00;;;;;;4960885;28;20031;-80
2021/09/01 09:41:30;;;;;;;1.73;1.33;;;20.60;65.00;;;;;;4959800;28;20085;-80
2021/09/01 09:43:59;;;;;;;3.53;2.00;;;20.60;65.00;;;;;;4928192;28;20035;-81
2021/09/01 09:46:26;;;;;;;3.60;1.55;;;20.60;65.00;;;;;;4959585;28;20031;-80
2021/09/01 09:49:02;;;;;;;3.88;1.50;;;20.60;64.90;;;;;;4943686;28;20082;-80
2021/09/01 09:51:41;;;;;;;3.33;1.67;;;20.70;64.90;;;;;;4976574;28;20034;-81
2021/09/01 09:54:17;;;;;;;2.85;1.38;;;20.70;64.90;;;;;;4960469;28;20022;-80
2021/09/01 09:56:45;;;;;;;3.10;1.55;;;20.70;64.90;;;;;;4943531;28;20058;-81
2021/09/01 09:59:19;;;;;;;2.53;1.33;;;20.80;64.80;;;;;;4959657;28;20034;-81
2021/09/01 10:01:47;;;;;;;4.32;1.63;;;20.80;64.90;;;;;;4960255;28;20479;-81
2021/09/01 10:04:13;;;;;;;2.75;1.67;;;20.80;64.80;;;;;;4943637;28;20042;-81
2021/09/01 10:06:41;;;;;;;2.58;1.67;;;20.80;64.70;;;;;;4959576;28;20122;-80
2021/09/01 10:09:08;;;;;;;3.20;2.00;;;20.90;64.70;;;;;;4976383;28;20026;-80
2021/09/01 10:11:37;;;;;;;3.33;1.90;;;20.90;64.70;;;;;;4943704;28;20117;-80
2021/09/01 10:14:05;;;;;;;3.08;1.70;;;20.90;64.70;;;;;;4959578;28;20027;-80
2021/09/01 10:16:34;;;;;;;2.53;1.70;;;21.00;64.70;;;;;;4959036;28;20043;-80
2021/09/01 10:19:15;;;;;;;2.72;1.70;;;21.00;64.70;;;;;;4943405;28;20054;-81
2021/09/01 10:21:44;;;;;;;3.85;2.08;;;21.00;64.70;;;;;;4959615;28;20122;-80
2021/09/01 10:24:19;;;;;;;3.05;1.55;;;21.10;64.60;;;;;;4943405;28;20031;-81
2021/09/01 10:27:03;;;;;;;;;;;21.10;64.70;;;;;;4976338;28;20473;-81
2021/09/01 10:29:44;;;;;;;2.45;1.25;;;21.10;64.50;;;;;;4974896;28;19913;-80
2021/09/01 10:32:28;;;;;;;3.60;1.60;;;21.20;64.50;;;;;;4959548;28;20041;-80
2021/09/01 10:35:12;;;;;;;2.47;1.40;;;21.20;64.70;;;;;;4959143;28;20035;-80
2021/09/01 10:37:39;;;;;;;2.55;1.25;;;21.20;64.70;;;;;;4958478;28;20031;-80
2021/09/01 10:40:11;;;;;;;3.50;1.60;;;21.20;64.60;;;;;;4942729;28;20408;-80
2021/09/01 10:42:42;;;;;;;2.83;1.77;;;21.30;64.60;;;;;;4958996;28;20078;-81
2021/09/01 10:45:16;;;;;;;2.75;1.70;;;21.30;64.60;;;;;;4927102;28;20500;-80
2021/09/01 10:48:00;;;;;;;2.65;1.42;;;21.40;64.60;;;;;;4958710;28;20031;-80
2021/09/01 10:50:31;;;;;;;2.42;1.52;;;21.40;64.70;;;;;;4958883;28;20035;-80
2021/09/01 10:53:15;;;;;;;2.80;1.70;;;21.40;64.60;;;;;;4958160;28;20035;-80
2021/09/01 10:55:54;;;;;;;2.75;1.42;;;21.40;64.70;;;;;;4958549;28;20238;-80
2021/09/01 10:58:21;;;;;;;3.42;1.88;;;21.50;64.60;;;;;;4942741;28;20033;-79
2021/09/01 11:00:53;;;;;;;3.13;1.50;;;21.60;64.40;;;;;;4958935;28;20019;-81
2021/09/01 11:03:26;;;;;;;3.03;1.60;;;21.60;64.40;;;;;;4958603;28;20479;-80
2021/09/01 11:05:52;;;;;;;2.97;1.70;;;21.60;64.40;;;;;;4958221;28;20039;-81
2021/09/01 11:08:18;;;;;;;2.50;1.40;;;21.70;64.30;;;;;;4926334;28;20027;-80
2021/09/01 11:10:57;;;;;;;2.83;1.65;;;21.70;64.20;;;;;;4958032;28;20090;-80
2021/09/01 11:13:39;;;;;;;3.53;1.73;;;21.70;64.30;;;;;;4942470;28;20506;-80
2021/09/01 11:16:20;;;;;;;3.22;1.70;;;21.80;64.30;;;;;;4943124;28;20474;-79
2021/09/01 11:19:05;;;;;;;3.15;1.42;;;21.80;64.10;;;;;;4958167;28;20163;-80
2021/09/01 11:21:40;;;;;;;2.53;1.52;;;21.80;64.10;;;;;;4974477;28;20045;-80
2021/09/01 11:24:07;;;;;;;;;;;21.80;63.90;;;;;;4943015;28;20062;-80
2021/09/01 11:26:33;;;;;;;2.97;1.80;;;21.90;63.90;;;;;;4958697;28;19910;-84
2021/09/01 11:29:04;;;;;;;2.60;1.60;;;21.90;63.70;;;;;;4958323;28;20106;-80
2021/09/01 11:31:30;;;;;;;3.42;1.90;;;21.90;63.80;;;;;;4942361;28;20034;-79
2021/09/01 11:33:57;;;;;;;1.63;1.30;;;21.90;63.70;;;;;;4942079;28;20126;-82
2021/09/01 11:36:25;;;;;;;2.55;1.50;;;22.00;63.80;;;;;;4941873;28;20077;-80
2021/09/01 11:38:51;;;;;;;3.30;1.70;;;22.00;63.70;;;;;;4957746;28;20023;-79
2021/09/01 11:41:21;;;;;;;3.08;1.55;;;22.00;63.60;;;;;;4941554;28;20045;-80
2021/09/01 11:44:03;;;;;;;2.47;1.88;;;22.00;63.50;;;;;;4941685;28;20041;-80
2021/09/01 11:46:34;;;;;;;3.42;1.70;;;22.00;63.40;;;;;;4957726;28;20505;-80
2021/09/01 11:49:05;;;;;;;3.90;1.88;;;22.10;63.50;;;;;;4974770;28;20058;-81
2021/09/01 11:51:31;;;;;;;2.33;1.48;;;22.20;63.60;;;;;;4957307;28;20505;-82
2021/09/01 11:53:59;;;;;;;2.00;1.40;;;22.10;63.50;;;;;;4941303;28;20134;-80
2021/09/01 11:56:28;;;;;;;2.22;1.50;;;22.20;63.50;;;;;;4925837;28;20039;-81
2021/09/01 11:59:03;;;;;;;2.90;1.73;;;22.20;63.50;;;;;;4941926;28;20531;-80
2021/09/01 12:01:30;;;;;;;4.03;1.77;;;22.30;63.50;;;;;;4941872;28;20475;-81
2021/09/01 12:03:57;;;;;;;4.93;1.83;;;22.30;63.30;;;;;;4957417;28;20039;-80
2021/09/01 12:06:53;;;;;;;2.72;1.80;;;22.30;63.20;;;;;;4958249;28;20027;-81
2021/09/01 12:09:20;;;;;;;3.20;1.58;;;22.30;63.20;;;;;;4973052;28;20039;-80
2021/09/01 12:11:59;;;;;;;2.30;1.60;;;22.40;63.10;;;;;;4957805;28;20050;-80
2021/09/01 12:14:29;;;;;;;1.92;1.35;;;22.40;63.10;;;;;;4957726;28;20395;-80
2021/09/01 12:17:20;;;;;;;3.38;1.85;;;22.40;63.00;;;;;;4941617;28;20065;-81
2021/09/01 12:19:52;;;;;;;2.83;1.80;;;22.40;63.00;;;;;;4958117;28;20058;-80
2021/09/01 12:22:41;;;;;;;2.75;1.52;;;22.40;62.80;;;;;;4958019;28;20035;-80
2021/09/01 12:25:14;;;;;;;3.08;1.48;;;22.50;62.90;;;;;;4941651;28;20105;-80
2021/09/01 12:28:04;;;;;;;3.42;1.80;;;22.50;62.80;;;;;;4941494;28;20027;-80
2021/09/01 12:30:32;;;;;;;2.58;1.40;;;22.50;62.90;;;;;;4957529;28;20034;-80
2021/09/01 12:32:59;;;;;;;3.28;1.60;;;22.50;62.80;;;;;;4957170;28;20027;-80
2021/09/01 12:35:28;;;;;;;2.60;1.40;;;22.50;62.70;;;;;;4957044;28;20062;-80
2021/09/01 12:38:00;;;;;;;2.88;1.60;;;22.60;62.80;;;;;;4941110;28;20030;-80
2021/09/01 12:40:28;;;;;;;2.55;1.50;;;22.60;62.70;;;;;;4957281;28;20053;-80
2021/09/01 12:43:07;;;;;;;3.00;1.65;;;22.60;62.70;;;;;;4957225;28;20030;-80
2021/09/01 12:45:44;;;;;;;2.58;1.40;;;22.60;62.70;;;;;;4941582;28;20031;-80
2021/09/01 12:48:19;;;;;;;3.70;1.60;;;22.60;62.60;;;;;;4941156;28;20539;-80
2021/09/01 12:50:46;;;;;;;2.95;1.50;;;22.70;62.60;;;;;;4941280;28;20431;-80
2021/09/01 12:53:20;;;;;;;2.03;1.45;;;22.70;62.60;;;;;;4957019;28;20061;-80
2021/09/01 12:55:48;;;;;;;2.60;1.80;;;22.70;62.50;;;;;;4957121;28;20546;-80